sensor_id;sensor_type;location;lat;lon;timestamp;temperature;humidity
39503;DHT22;26970;49.900;10.774;2024-01-10T00:00:11;-6.60;99.90
39503;DHT22;26970;49.900;10.774;2024-01-10T00:02:36;-6.60;99.90
39503;DHT22;26970;49.900;10.774;2024-01-10T00:05:02;-6.60;99.90
39503;DHT22;26970;49.900;10.774;2024-01-10T00:07:29;-6.60;99.90
39503;DHT22;26970;49.900;10.774;2024-01-10T00:09:54;-6.60;99.90
39503;DHT22;26970;49.900;10.774;2024-01-10T00:12:21;-6.60;99.90
39503;DHT22;26970;49.900;10.774;2024-01-10T00:14:46;-6.60;99.90
39503;DHT22;26970;49.900;10.774;2024-01-10T00:17:12;-6.40;99.90
39503;DHT22;26970;49.900;10.774;2024-01-10T00:19:38;-6.60;99.90
39503;DHT22;26970;49.900;10.774;2024-01-10T00:22:04;-6.60;99.90
39503;DHT22;26970;49.900;10.774;2024-01-10T00:24:29;-6.60;99.90
39503;DHT22;26970;49.900;10.774;2024-01-10T00:26:55;-6.60;99.90
39503;DHT22;26970;49.900;10.774;2024-01-10T00:29:21;-6.50;99.90
39503;DHT22;26970;49.900;10.774;2024-01-10T00:31:46;-6.60;99.90
39503;DHT22;26970;49.900;10.774;2024-01-10T00:34:12;-6.60;99.90
39503;DHT22;26970;49.900;10.774;2024-01-10T00:36:37;-6.50;99.90
39503;DHT22;26970;49.900;10.774;2024-01-10T00:39:03;-6.60;99.90
39503;DHT22;26970;49.900;10.774;2024-01-10T00:41:29;-6.60;99.90
39503;DHT22;26970;49.900;10.774;2024-01-10T00:43:54;-6.60;99.90
39503;DHT22;26970;49.900;10.774;2024-01-10T00:46:20;-6.50;99.90
39503;DHT22;26970;49.900;10.774;2024-01-10T00:48:46;-6.60;99.90
39503;DHT22;26970;49.900;10.774;2024-01-10T00:51:11;-6.60;99.90
39503;DHT22;26970;49.900;10.774;2024-01-10T00:53:37;-6.60;99.90
39503;DHT22;26970;49.900;10.774;2024-01-10T00:56:06;-6.60;99.90
39503;DHT22;26970;49.900;10.774;2024-01-10T00:58:32;-6.60;99.90
39503;DHT22;26970;49.900;10.774;2024-01-10T01:00:57;-6.40;99.90
39503;DHT22;26970;49.900;10.774;2024-01-10T01:03:23;-6.60;99.90
39503;DHT22;26970;49.900;10.774;2024-01-10T01:05:48;-6.20;99.90
39503;DHT22;26970;49.900;10.774;2024-01-10T01:08:14;-6.60;99.90
39503;DHT22;26970;49.900;10.774;2024-01-10T01:10:39;-6.60;99.90
39503;DHT22;26970;49.900;10.774;2024-01-10T01:13:05;-6.60;99.90
39503;DHT22;26970;49.900;10.774;2024-01-10T01:15:31;-6.60;99.90
39503;DHT22;26970;49.900;10.774;2024-01-10T01:17:56;-6.60;99.90
39503;DHT22;26970;49.900;10.774;2024-01-10T01:20:22;-6.60;99.90
39503;DHT22;26970;49.900;10.774;2024-01-10T01:22:48;-6.60;99.90
39503;DHT22;26970;49.900;10.774;2024-01-10T01:25:13;-6.50;99.90
39503;DHT22;26970;49.900;10.774;2024-01-10T01:27:39;-6.50;99.90
39503;DHT22;26970;49.900;10.774;2024-01-10T01:30:05;-6.50;99.90
39503;DHT22;26970;49.900;10.774;2024-01-10T01:32:31;-6.50;99.90
39503;DHT22;26970;49.900;10.774;2024-01-10T01:34:57;-6.50;99.90
39503;DHT22;26970;49.900;10.774;2024-01-10T01:37:22;-6.00;99.90
39503;DHT22;26970;49.900;10.774;2024-01-10T01:39:48;-6.50;99.90
39503;DHT22;26970;49.900;10.774;2024-01-10T01:42:15;-6.50;99.90
39503;DHT22;26970;49.900;10.774;2024-01-10T01:44:41;-6.50;99.90
39503;DHT22;26970;49.900;10.774;2024-01-10T01:47:06;-6.50;99.90
39503;DHT22;26970;49.900;10.774;2024-01-10T01:49:32;-6.50;99.90
39503;DHT22;26970;49.900;10.774;2024-01-10T01:51:59;-6.40;99.90
39503;DHT22;26970;49.900;10.774;2024-01-10T01:54:25;-6.40;99.90
39503;DHT22;26970;49.900;10.774;2024-01-10T01:56:51;-6.40;99.90
39503;DHT22;26970;49.900;10.774;2024-01-10T01:59:17;-6.40;99.90
39503;DHT22;26970;49.900;10.774;2024-01-10T02:01:44;-6.40;99.90
39503;DHT22;26970;49.900;10.774;2024-01-10T02:04:09;-6.40;99.90
39503;DHT22;26970;49.900;10.774;2024-01-10T02:06:35;-6.00;99.90
39503;DHT22;26970;49.900;10.774;2024-01-10T02:09:01;-6.40;99.90
39503;DHT22;26970;49.900;10.774;2024-01-10T02:11:26;-6.40;99.90
39503;DHT22;26970;49.900;10.774;2024-01-10T02:13:52;-6.40;99.90
39503;DHT22;26970;49.900;10.774;2024-01-10T02:16:21;-6.50;99.90
39503;DHT22;26970;49.900;10.774;2024-01-10T02:18:49;-6.40;99.90
39503;DHT22;26970;49.900;10.774;2024-01-10T02:21:15;-6.40;99.90
39503;DHT22;26970;49.900;10.774;2024-01-10T02:23:40;-6.40;99.90
39503;DHT22;26970;49.900;10.774;2024-01-10T02:26:06;-6.40;99.90
39503;DHT22;26970;49.900;10.774;2024-01-10T02:28:32;-6.50;99.90
39503;DHT22;26970;49.900;10.774;2024-01-10T02:30:58;-6.30;99.90
39503;DHT22;26970;49.900;10.774;2024-01-10T02:33:24;-6.10;99.90
39503;DHT22;26970;49.900;10.774;2024-01-10T02:35:49;-6.40;99.90
39503;DHT22;26970;49.900;10.774;2024-01-10T02:38:15;-6.40;99.90
39503;DHT22;26970;49.900;10.774;2024-01-10T02:40:41;-5.80;99.90
39503;DHT22;26970;49.900;10.774;2024-01-10T02:43:06;-6.30;99.90
39503;DHT22;26970;49.900;10.774;2024-01-10T02:45:33;-6.40;99.90
39503;DHT22;26970;49.900;10.774;2024-01-10T02:47:59;-6.40;99.90
39503;DHT22;26970;49.900;10.774;2024-01-10T02:50:25;-6.40;99.90
39503;DHT22;26970;49.900;10.774;2024-01-10T02:52:50;-6.30;99.90
39503;DHT22;26970;49.900;10.774;2024-01-10T02:55:16;-6.30;99.90
39503;DHT22;26970;49.900;10.774;2024-01-10T02:57:41;-6.30;99.90
39503;DHT22;26970;49.900;10.774;2024-01-10T03:00:07;-6.30;99.90
39503;DHT22;26970;49.900;10.774;2024-01-10T03:02:33;-6.30;99.90
39503;DHT22;26970;49.900;10.774;2024-01-10T03:04:59;-6.30;99.90
39503;DHT22;26970;49.900;10.774;2024-01-10T03:07:24;-6.30;99.90
39503;DHT22;26970;49.900;10.774;2024-01-10T03:09:50;-6.30;99.90
39503;DHT22;26970;49.900;10.774;2024-01-10T03:12:16;-6.20;99.90
39503;DHT22;26970;49.900;10.774;2024-01-10T03:14:41;-6.40;99.90
39503;DHT22;26970;49.900;10.774;2024-01-10T03:17:07;-6.40;99.90
39503;DHT22;26970;49.900;10.774;2024-01-10T03:19:33;-6.50;99.90
39503;DHT22;26970;49.900;10.774;2024-01-10T03:21:58;-6.50;99.90
39503;DHT22;26970;49.900;10.774;2024-01-10T03:24:24;-6.50;99.90
39503;DHT22;26970;49.900;10.774;2024-01-10T03:26:52;-6.50;99.90
39503;DHT22;26970;49.900;10.774;2024-01-10T03:29:18;-6.50;99.90
39503;DHT22;26970;49.900;10.774;2024-01-10T03:31:43;-6.40;99.90
39503;DHT22;26970;49.900;10.774;2024-01-10T03:34:09;-6.50;99.90
39503;DHT22;26970;49.900;10.774;2024-01-10T03:36:34;-6.40;99.90
39503;DHT22;26970;49.900;10.774;2024-01-10T03:39:00;-6.50;99.90
39503;DHT22;26970;49.900;10.774;2024-01-10T03:41:26;-6.50;99.90
39503;DHT22;26970;49.900;10.774;2024-01-10T03:43:52;-6.60;99.90
39503;DHT22;26970;49.900;10.774;2024-01-10T03:46:18;-6.50;99.90
39503;DHT22;26970;49.900;10.774;2024-01-10T03:48:43;-6.40;99.90
39503;DHT22;26970;49.900;10.774;2024-01-10T03:51:16;-6.50;99.90
39503;DHT22;26970;49.900;10.774;2024-01-10T03:53:42;-6.50;99.90
39503;DHT22;26970;49.900;10.774;2024-01-10T03:56:08;-6.60;99.90
39503;DHT22;26970;49.900;10.774;2024-01-10T03:58:34;-6.60;99.90
39503;DHT22;26970;49.900;10.774;2024-01-10T04:01:04;-6.50;99.90
39503;DHT22;26970;49.900;10.774;2024-01-10T04:03:30;-6.40;99.90
39503;DHT22;26970;49.900;10.774;2024-01-10T04:05:55;-6.40;99.90
39503;DHT22;26970;49.900;10.774;2024-01-10T04:08:21;-6.40;99.90
39503;DHT22;26970;49.900;10.774;2024-01-10T04:10:47;-6.40;99.90
39503;DHT22;26970;49.900;10.774;2024-01-10T04:13:12;-6.40;99.90
39503;DHT22;26970;49.900;10.774;2024-01-10T04:15:38;-6.30;99.90
39503;DHT22;26970;49.900;10.774;2024-01-10T04:18:04;-6.30;99.90
39503;DHT22;26970;49.900;10.774;2024-01-10T04:20:29;-6.30;99.90
39503;DHT22;26970;49.900;10.774;2024-01-10T04:22:55;-6.30;99.90
39503;DHT22;26970;49.900;10.774;2024-01-10T04:25:20;-6.30;99.90
39503;DHT22;26970;49.900;10.774;2024-01-10T04:27:46;-6.00;99.90
39503;DHT22;26970;49.900;10.774;2024-01-10T04:30:12;-6.40;99.90
39503;DHT22;26970;49.900;10.774;2024-01-10T04:32:38;-6.30;99.90
39503;DHT22;26970;49.900;10.774;2024-01-10T04:35:04;-5.70;99.90
39503;DHT22;26970;49.900;10.774;2024-01-10T04:37:29;-6.30;99.90
39503;DHT22;26970;49.900;10.774;2024-01-10T04:39:55;-6.30;99.90
39503;DHT22;26970;49.900;10.774;2024-01-10T04:42:21;-6.30;99.90
39503;DHT22;26970;49.900;10.774;2024-01-10T04:44:46;-6.40;99.90
39503;DHT22;26970;49.900;10.774;2024-01-10T04:47:12;-6.40;99.90
39503;DHT22;26970;49.900;10.774;2024-01-10T04:49:37;-6.10;99.90
39503;DHT22;26970;49.900;10.774;2024-01-10T04:52:03;-6.40;99.90
39503;DHT22;26970;49.900;10.774;2024-01-10T04:54:29;-6.40;99.90
39503;DHT22;26970;49.900;10.774;2024-01-10T04:56:55;-6.50;99.90
39503;DHT22;26970;49.900;10.774;2024-01-10T04:59:20;-6.20;99.90
39503;DHT22;26970;49.900;10.774;2024-01-10T05:01:46;-6.40;99.90
39503;DHT22;26970;49.900;10.774;2024-01-10T05:04:11;-6.40;99.90
39503;DHT22;26970;49.900;10.774;2024-01-10T05:06:37;-5.60;99.90
39503;DHT22;26970;49.900;10.774;2024-01-10T05:09:02;-6.40;99.90
39503;DHT22;26970;49.900;10.774;2024-01-10T05:11:29;-6.40;99.90
39503;DHT22;26970;49.900;10.774;2024-01-10T05:13:55;-6.30;99.90
39503;DHT22;26970;49.900;10.774;2024-01-10T05:16:21;-6.30;99.90
39503;DHT22;26970;49.900;10.774;2024-01-10T05:18:47;-6.10;99.90
39503;DHT22;26970;49.900;10.774;2024-01-10T05:21:12;-6.20;99.90
39503;DHT22;26970;49.900;10.774;2024-01-10T05:23:38;-6.20;99.90
39503;DHT22;26970;49.900;10.774;2024-01-10T05:26:05;-6.20;99.90
39503;DHT22;26970;49.900;10.774;2024-01-10T05:28:31;-6.20;99.90
39503;DHT22;26970;49.900;10.774;2024-01-10T05:30:57;-6.20;99.90
39503;DHT22;26970;49.900;10.774;2024-01-10T05:33:23;-5.80;99.90
39503;DHT22;26970;49.900;10.774;2024-01-10T05:35:49;-6.20;99.90
39503;DHT22;26970;49.900;10.774;2024-01-10T05:38:14;-6.20;99.90
39503;DHT22;26970;49.900;10.774;2024-01-10T05:40:40;-6.20;99.90
39503;DHT22;26970;49.900;10.774;2024-01-10T05:43:06;-6.20;99.90
39503;DHT22;26970;49.900;10.774;2024-01-10T05:45:32;-6.00;99.90
39503;DHT22;26970;49.900;10.774;2024-01-10T05:47:58;-6.20;99.90
39503;DHT22;26970;49.900;10.774;2024-01-10T05:50:24;-6.10;99.90
39503;DHT22;26970;49.900;10.774;2024-01-10T05:52:50;-6.10;99.90
39503;DHT22;26970;49.900;10.774;2024-01-10T05:55:15;-6.00;99.90
39503;DHT22;26970;49.900;10.774;2024-01-10T05:57:49;-6.00;99.90
39503;DHT22;26970;49.900;10.774;2024-01-10T06:00:15;-6.00;99.90
39503;DHT22;26970;49.900;10.774;2024-01-10T06:02:42;-6.00;99.90
39503;DHT22;26970;49.900;10.774;2024-01-10T06:05:09;-6.00;99.90
39503;DHT22;26970;49.900;10.774;2024-01-10T06:07:39;-5.90;99.90
39503;DHT22;26970;49.900;10.774;2024-01-10T06:10:05;-5.80;99.90
39503;DHT22;26970;49.900;10.774;2024-01-10T06:12:31;-5.80;99.90
39503;DHT22;26970;49.900;10.774;2024-01-10T06:14:57;-5.80;99.90
39503;DHT22;26970;49.900;10.774;2024-01-10T06:17:23;-5.80;99.90
39503;DHT22;26970;49.900;10.774;2024-01-10T06:19:49;-5.80;99.90
39503;DHT22;26970;49.900;10.774;2024-01-10T06:22:15;-5.90;99.90
39503;DHT22;26970;49.900;10.774;2024-01-10T06:24:42;-5.80;99.90
39503;DHT22;26970;49.900;10.774;2024-01-10T06:27:08;-5.80;99.90
39503;DHT22;26970;49.900;10.774;2024-01-10T06:29:35;-5.80;99.90
39503;DHT22;26970;49.900;10.774;2024-01-10T06:32:01;-5.80;99.90
39503;DHT22;26970;49.900;10.774;2024-01-10T06:34:27;-5.60;99.90
39503;DHT22;26970;49.900;10.774;2024-01-10T06:36:53;-5.80;99.90
39503;DHT22;26970;49.900;10.774;2024-01-10T06:39:18;-5.80;99.90
39503;DHT22;26970;49.900;10.774;2024-01-10T06:41:47;-5.80;99.90
39503;DHT22;26970;49.900;10.774;2024-01-10T06:44:12;-5.50;99.90
39503;DHT22;26970;49.900;10.774;2024-01-10T06:46:38;-5.90;99.90
39503;DHT22;26970;49.900;10.774;2024-01-10T06:49:03;-5.90;99.90
39503;DHT22;26970;49.900;10.774;2024-01-10T06:51:29;-5.90;99.90
39503;DHT22;26970;49.900;10.774;2024-01-10T06:53:55;-5.90;99.90
39503;DHT22;26970;49.900;10.774;2024-01-10T06:56:28;-5.90;99.90
39503;DHT22;26970;49.900;10.774;2024-01-10T06:58:53;-5.90;99.90
39503;DHT22;26970;49.900;10.774;2024-01-10T07:01:20;-5.60;99.90
39503;DHT22;26970;49.900;10.774;2024-01-10T07:03:47;-5.80;99.90
39503;DHT22;26970;49.900;10.774;2024-01-10T07:06:13;-5.80;99.90
39503;DHT22;26970;49.900;10.774;2024-01-10T07:08:42;-5.80;99.90
39503;DHT22;26970;49.900;10.774;2024-01-10T07:11:09;-5.80;99.90
39503;DHT22;26970;49.900;10.774;2024-01-10T07:13:36;-5.50;99.90
39503;DHT22;26970;49.900;10.774;2024-01-10T07:16:02;-5.70;99.90
39503;DHT22;26970;49.900;10.774;2024-01-10T07:18:28;-5.80;99.90
39503;DHT22;26970;49.900;10.774;2024-01-10T07:20:54;-5.70;99.90
39503;DHT22;26970;49.900;10.774;2024-01-10T07:23:20;-5.70;99.90
39503;DHT22;26970;49.900;10.774;2024-01-10T07:25:46;-5.70;99.90
39503;DHT22;26970;49.900;10.774;2024-01-10T07:28:12;-5.80;99.90
39503;DHT22;26970;49.900;10.774;2024-01-10T07:30:37;-5.80;99.90
39503;DHT22;26970;49.900;10.774;2024-01-10T07:33:03;-5.80;99.90
39503;DHT22;26970;49.900;10.774;2024-01-10T07:35:28;-5.80;99.90
39503;DHT22;26970;49.900;10.774;2024-01-10T07:37:55;-5.70;99.90
39503;DHT22;26970;49.900;10.774;2024-01-10T07:40:21;-5.70;99.90
39503;DHT22;26970;49.900;10.774;2024-01-10T07:42:48;-5.70;99.90
39503;DHT22;26970;49.900;10.774;2024-01-10T07:45:13;-5.60;99.90
39503;DHT22;26970;49.900;10.774;2024-01-10T07:47:39;-5.30;99.90
39503;DHT22;26970;49.900;10.774;2024-01-10T07:50:09;-5.50;99.90
39503;DHT22;26970;49.900;10.774;2024-01-10T07:52:35;-5.10;99.90
39503;DHT22;26970;49.900;10.774;2024-01-10T07:55:01;-5.30;99.90
39503;DHT22;26970;49.900;10.774;2024-01-10T07:57:27;-5.20;99.90
39503;DHT22;26970;49.900;10.774;2024-01-10T07:59:55;-5.10;99.90
39503;DHT22;26970;49.900;10.774;2024-01-10T08:02:21;-5.00;99.90
39503;DHT22;26970;49.900;10.774;2024-01-10T08:04:47;-5.00;99.90
39503;DHT22;26970;49.900;10.774;2024-01-10T08:07:13;-5.20;99.90
39503;DHT22;26970;49.900;10.774;2024-01-10T08:09:38;-4.90;99.90
39503;DHT22;26970;49.900;10.774;2024-01-10T08:12:04;-4.80;99.90
39503;DHT22;26970;49.900;10.774;2024-01-10T08:14:30;-4.80;99.90
39503;DHT22;26970;49.900;10.774;2024-01-10T08:16:55;-4.80;99.90
39503;DHT22;26970;49.900;10.774;2024-01-10T08:19:27;-4.70;99.90
39503;DHT22;26970;49.900;10.774;2024-01-10T08:21:55;-4.60;99.90
39503;DHT22;26970;49.900;10.774;2024-01-10T08:24:22;-4.60;99.90
39503;DHT22;26970;49.900;10.774;2024-01-10T08:26:48;-4.50;99.90
39503;DHT22;26970;49.900;10.774;2024-01-10T08:29:21;-4.50;99.90
39503;DHT22;26970;49.900;10.774;2024-01-10T08:31:47;-4.40;99.90
39503;DHT22;26970;49.900;10.774;2024-01-10T08:34:13;-4.20;99.90
39503;DHT22;26970;49.900;10.774;2024-01-10T08:36:39;-4.20;99.90
39503;DHT22;26970;49.900;10.774;2024-01-10T08:39:04;-4.20;99.90
39503;DHT22;26970;49.900;10.774;2024-01-10T08:41:32;-3.80;99.90
39503;DHT22;26970;49.900;10.774;2024-01-10T08:43:58;-4.00;99.90
39503;DHT22;26970;49.900;10.774;2024-01-10T08:46:23;-4.00;99.90
39503;DHT22;26970;49.900;10.774;2024-01-10T08:48:50;-3.80;99.90
39503;DHT22;26970;49.900;10.774;2024-01-10T08:51:15;-3.90;99.90
39503;DHT22;26970;49.900;10.774;2024-01-10T08:53:43;-3.80;99.90
39503;DHT22;26970;49.900;10.774;2024-01-10T08:56:09;-3.70;99.90
39503;DHT22;26970;49.900;10.774;2024-01-10T08:58:35;-3.60;99.90
39503;DHT22;26970;49.900;10.774;2024-01-10T09:01:01;-3.40;99.90
39503;DHT22;26970;49.900;10.774;2024-01-10T09:03:27;-3.40;99.90
39503;DHT22;26970;49.900;10.774;2024-01-10T09:05:53;-3.30;99.90
39503;DHT22;26970;49.900;10.774;2024-01-10T09:08:18;-2.80;99.90
39503;DHT22;26970;49.900;10.774;2024-01-10T09:10:44;-3.10;99.90
39503;DHT22;26970;49.900;10.774;2024-01-10T09:13:09;-3.00;99.90
39503;DHT22;26970;49.900;10.774;2024-01-10T09:15:35;-3.00;99.90
39503;DHT22;26970;49.900;10.774;2024-01-10T09:18:01;-2.90;99.90
39503;DHT22;26970;49.900;10.774;2024-01-10T09:20:26;-2.90;99.90
39503;DHT22;26970;49.900;10.774;2024-01-10T09:22:52;-2.80;99.90
39503;DHT22;26970;49.900;10.774;2024-01-10T09:25:18;-2.80;99.90
39503;DHT22;26970;49.900;10.774;2024-01-10T09:27:44;-2.60;99.90
39503;DHT22;26970;49.900;10.774;2024-01-10T09:30:10;-2.70;99.90
39503;DHT22;26970;49.900;10.774;2024-01-10T09:32:37;-2.60;99.90
39503;DHT22;26970;49.900;10.774;2024-01-10T09:35:03;-2.50;99.90
39503;DHT22;26970;49.900;10.774;2024-01-10T09:37:29;-2.50;99.90
39503;DHT22;26970;49.900;10.774;2024-01-10T09:39:55;-2.50;99.90
39503;DHT22;26970;49.900;10.774;2024-01-10T09:42:21;-2.40;99.90
39503;DHT22;26970;49.900;10.774;2024-01-10T09:44:53;-2.30;99.90
39503;DHT22;26970;49.900;10.774;2024-01-10T09:47:20;-2.30;99.90
39503;DHT22;26970;49.900;10.774;2024-01-10T09:49:46;-2.20;99.90
39503;DHT22;26970;49.900;10.774;2024-01-10T09:52:25;-2.30;99.90
39503;DHT22;26970;49.900;10.774;2024-01-10T09:54:55;-2.20;99.90
39503;DHT22;26970;49.900;10.774;2024-01-10T09:57:24;-2.10;99.90
39503;DHT22;26970;49.900;10.774;2024-01-10T09:59:51;-1.90;99.90
39503;DHT22;26970;49.900;10.774;2024-01-10T10:02:18;-2.00;99.90
39503;DHT22;26970;49.900;10.774;2024-01-10T10:04:55;-2.00;99.90
39503;DHT22;26970;49.900;10.774;2024-01-10T10:07:23;-2.00;99.90
39503;DHT22;26970;49.900;10.774;2024-01-10T10:09:48;-1.80;99.90
39503;DHT22;26970;49.900;10.774;2024-01-10T10:12:14;-1.70;99.90
39503;DHT22;26970;49.900;10.774;2024-01-10T10:14:40;-1.80;99.90
39503;DHT22;26970;49.900;10.774;2024-01-10T10:17:18;-1.80;99.90
39503;DHT22;26970;49.900;10.774;2024-01-10T10:19:44;-1.80;99.90
39503;DHT22;26970;49.900;10.774;2024-01-10T10:22:10;-1.70;99.90
39503;DHT22;26970;49.900;10.774;2024-01-10T10:24:37;-1.50;99.90
39503;DHT22;26970;49.900;10.774;2024-01-10T10:27:12;-1.60;99.90
39503;DHT22;26970;49.900;10.774;2024-01-10T10:29:40;-1.50;99.90
39503;DHT22;26970;49.900;10.774;2024-01-10T10:32:07;-1.40;99.90
39503;DHT22;26970;49.900;10.774;2024-01-10T10:34:34;-1.20;99.90
39503;DHT22;26970;49.900;10.774;2024-01-10T10:37:00;-1.40;99.90
39503;DHT22;26970;49.900;10.774;2024-01-10T10:39:25;-1.40;99.90
39503;DHT22;26970;49.900;10.774;2024-01-10T10:41:51;-1.10;99.90
39503;DHT22;26970;49.900;10.774;2024-01-10T10:44:23;-1.50;99.90
39503;DHT22;26970;49.900;10.774;2024-01-10T10:46:59;-1.30;99.90
39503;DHT22;26970;49.900;10.774;2024-01-10T10:49:29;-1.30;99.90
39503;DHT22;26970;49.900;10.774;2024-01-10T10:51:58;-1.30;99.90
39503;DHT22;26970;49.900;10.774;2024-01-10T10:54:27;-1.30;99.90
39503;DHT22;26970;49.900;10.774;2024-01-10T10:56:54;-1.40;99.90
39503;DHT22;26970;49.900;10.774;2024-01-10T10:59:21;-1.30;99.90
39503;DHT22;26970;49.900;10.774;2024-01-10T11:01:47;-1.20;99.90
39503;DHT22;26970;49.900;10.774;2024-01-10T11:04:15;-1.20;99.90
39503;DHT22;26970;49.900;10.774;2024-01-10T11:06:40;-1.30;99.90
39503;DHT22;26970;49.900;10.774;2024-01-10T11:09:08;-1.00;99.90
39503;DHT22;26970;49.900;10.774;2024-01-10T11:17:44;-1.10;99.90
39503;DHT22;26970;49.900;10.774;2024-01-10T11:20:42;-1.00;99.90
39503;DHT22;26970;49.900;10.774;2024-01-10T11:25:54;-1.00;99.90
39503;DHT22;26970;49.900;10.774;2024-01-10T11:28:25;-0.80;99.90
39503;DHT22;26970;49.900;10.774;2024-01-10T11:30:52;-0.90;99.90
39503;DHT22;26970;49.900;10.774;2024-01-10T11:33:23;-0.80;99.90
39503;DHT22;26970;49.900;10.774;2024-01-10T11:36:16;-0.50;99.90
39503;DHT22;26970;49.900;10.774;2024-01-10T11:38:44;-0.80;99.90
39503;DHT22;26970;49.900;10.774;2024-01-10T11:41:26;-0.80;99.90
39503;DHT22;26970;49.900;10.774;2024-01-10T11:46:53;-0.70;99.90
39503;DHT22;26970;49.900;10.774;2024-01-10T11:49:20;-0.30;99.90
39503;DHT22;26970;49.900;10.774;2024-01-10T11:51:46;-0.60;99.90
39503;DHT22;26970;49.900;10.774;2024-01-10T11:57:02;-0.50;99.90
39503;DHT22;26970;49.900;10.774;2024-01-10T11:59:28;-0.50;99.90
39503;DHT22;26970;49.900;10.774;2024-01-10T12:01:55;-0.30;99.90
39503;DHT22;26970;49.900;10.774;2024-01-10T12:04:21;-0.50;99.90
39503;DHT22;26970;49.900;10.774;2024-01-10T12:06:47;-0.40;99.90
39503;DHT22;26970;49.900;10.774;2024-01-10T12:09:13;-0.40;99.90
39503;DHT22;26970;49.900;10.774;2024-01-10T12:11:42;-0.40;99.90
39503;DHT22;26970;49.900;10.774;2024-01-10T12:14:10;-0.30;99.90
39503;DHT22;26970;49.900;10.774;2024-01-10T12:16:36;-0.20;99.90
39503;DHT22;26970;49.900;10.774;2024-01-10T12:19:02;-0.10;99.90
39503;DHT22;26970;49.900;10.774;2024-01-10T12:21:28;-0.10;99.90
39503;DHT22;26970;49.900;10.774;2024-01-10T12:23:53;0.00;99.90
39503;DHT22;26970;49.900;10.774;2024-01-10T12:26:19;0.20;99.90
39503;DHT22;26970;49.900;10.774;2024-01-10T12:28:55;0.00;99.90
39503;DHT22;26970;49.900;10.774;2024-01-10T12:31:21;0.00;99.90
39503;DHT22;26970;49.900;10.774;2024-01-10T12:33:51;0.00;99.90
39503;DHT22;26970;49.900;10.774;2024-01-10T12:36:17;0.40;99.90
39503;DHT22;26970;49.900;10.774;2024-01-10T12:38:44;0.10;99.90
39503;DHT22;26970;49.900;10.774;2024-01-10T12:41:15;0.20;99.90
39503;DHT22;26970;49.900;10.774;2024-01-10T12:43:41;0.10;99.90
39503;DHT22;26970;49.900;10.774;2024-01-10T12:46:26;0.10;99.90
39503;DHT22;26970;49.900;10.774;2024-01-10T12:49:14;0.10;99.90
39503;DHT22;26970;49.900;10.774;2024-01-10T12:51:41;0.20;99.90
39503;DHT22;26970;49.900;10.774;2024-01-10T12:54:06;0.40;99.90
39503;DHT22;26970;49.900;10.774;2024-01-10T12:56:32;0.20;99.90
39503;DHT22;26970;49.900;10.774;2024-01-10T12:58:58;0.20;99.90
39503;DHT22;26970;49.900;10.774;2024-01-10T13:01:24;0.20;99.90
39503;DHT22;26970;49.900;10.774;2024-01-10T13:03:50;0.20;99.90
39503;DHT22;26970;49.900;10.774;2024-01-10T13:06:16;0.40;99.90
39503;DHT22;26970;49.900;10.774;2024-01-10T13:08:44;0.20;99.90
39503;DHT22;26970;49.900;10.774;2024-01-10T13:11:11;0.20;99.90
39503;DHT22;26970;49.900;10.774;2024-01-10T13:13:37;0.20;99.90
39503;DHT22;26970;49.900;10.774;2024-01-10T13:16:03;0.30;99.90
39503;DHT22;26970;49.900;10.774;2024-01-10T13:18:28;0.30;99.90
39503;DHT22;26970;49.900;10.774;2024-01-10T13:20:55;0.30;99.90
39503;DHT22;26970;49.900;10.774;2024-01-10T13:23:21;0.30;99.90
39503;DHT22;26970;49.900;10.774;2024-01-10T13:25:50;0.40;99.90
39503;DHT22;26970;49.900;10.774;2024-01-10T13:28:16;0.50;99.90
39503;DHT22;26970;49.900;10.774;2024-01-10T13:30:42;0.60;99.90
39503;DHT22;26970;49.900;10.774;2024-01-10T13:33:11;0.40;99.90
39503;DHT22;26970;49.900;10.774;2024-01-10T13:35:37;0.50;99.90
39503;DHT22;26970;49.900;10.774;2024-01-10T13:38:04;0.40;99.90
39503;DHT22;26970;49.900;10.774;2024-01-10T13:40:30;0.40;99.90
39503;DHT22;26970;49.900;10.774;2024-01-10T13:42:57;0.40;99.90
39503;DHT22;26970;49.900;10.774;2024-01-10T13:45:22;0.50;99.90
39503;DHT22;26970;49.900;10.774;2024-01-10T13:47:48;0.50;99.90
39503;DHT22;26970;49.900;10.774;2024-01-10T13:50:16;0.40;99.90
39503;DHT22;26970;49.900;10.774;2024-01-10T13:52:42;0.40;99.90
39503;DHT22;26970;49.900;10.774;2024-01-10T13:55:09;0.40;99.90
39503;DHT22;26970;49.900;10.774;2024-01-10T13:57:35;0.50;99.90
39503;DHT22;26970;49.900;10.774;2024-01-10T14:00:01;0.50;99.90
39503;DHT22;26970;49.900;10.774;2024-01-10T14:02:28;0.50;99.90
39503;DHT22;26970;49.900;10.774;2024-01-10T14:04:54;0.40;99.90
39503;DHT22;26970;49.900;10.774;2024-01-10T14:07:20;0.80;99.90
39503;DHT22;26970;49.900;10.774;2024-01-10T14:09:46;0.60;99.90
39503;DHT22;26970;49.900;10.774;2024-01-10T14:12:12;0.90;99.90
39503;DHT22;26970;49.900;10.774;2024-01-10T14:14:38;0.70;99.90
39503;DHT22;26970;49.900;10.774;2024-01-10T14:17:05;0.60;99.90
39503;DHT22;26970;49.900;10.774;2024-01-10T14:19:30;0.60;99.90
39503;DHT22;26970;49.900;10.774;2024-01-10T14:21:56;0.70;99.90
39503;DHT22;26970;49.900;10.774;2024-01-10T14:24:21;0.70;99.90
39503;DHT22;26970;49.900;10.774;2024-01-10T14:26:47;0.90;99.90
39503;DHT22;26970;49.900;10.774;2024-01-10T14:29:13;0.80;99.90
39503;DHT22;26970;49.900;10.774;2024-01-10T14:31:38;0.50;99.90
39503;DHT22;26970;49.900;10.774;2024-01-10T14:34:05;0.50;99.90
39503;DHT22;26970;49.900;10.774;2024-01-10T14:36:31;0.70;99.90
39503;DHT22;26970;49.900;10.774;2024-01-10T14:38:57;0.40;99.90
39503;DHT22;26970;49.900;10.774;2024-01-10T14:41:23;0.50;99.90
39503;DHT22;26970;49.900;10.774;2024-01-10T14:43:48;0.50;99.90
39503;DHT22;26970;49.900;10.774;2024-01-10T14:46:14;0.30;99.90
39503;DHT22;26970;49.900;10.774;2024-01-10T14:48:39;0.40;99.90
39503;DHT22;26970;49.900;10.774;2024-01-10T14:51:05;0.30;99.90
39503;DHT22;26970;49.900;10.774;2024-01-10T14:53:31;0.50;99.90
39503;DHT22;26970;49.900;10.774;2024-01-10T14:55:56;0.20;99.90
39503;DHT22;26970;49.900;10.774;2024-01-10T14:58:22;0.60;99.90
39503;DHT22;26970;49.900;10.774;2024-01-10T15:00:48;0.20;99.90
39503;DHT22;26970;49.900;10.774;2024-01-10T15:03:13;0.20;99.90
39503;DHT22;26970;49.900;10.774;2024-01-10T15:05:41;0.20;99.90
39503;DHT22;26970;49.900;10.774;2024-01-10T15:08:07;0.10;99.90
39503;DHT22;26970;49.900;10.774;2024-01-10T15:10:37;0.00;99.90
39503;DHT22;26970;49.900;10.774;2024-01-10T15:13:12;-0.10;99.90
39503;DHT22;26970;49.900;10.774;2024-01-10T15:15:38;-0.10;99.90
39503;DHT22;26970;49.900;10.774;2024-01-10T15:18:05;-0.20;99.90
39503;DHT22;26970;49.900;10.774;2024-01-10T15:20:31;-0.20;99.90
39503;DHT22;26970;49.900;10.774;2024-01-10T15:22:56;-0.30;99.90
39503;DHT22;26970;49.900;10.774;2024-01-10T15:25:23;-0.40;99.90
39503;DHT22;26970;49.900;10.774;2024-01-10T15:27:50;-0.30;99.90